Terminal Aerodrome Forecast
Issued by NWS

Home | Current Version | Previous Version | Text Only | Print | Product List | Glossary On
Versions: 1 2 3 4 5 6 7 8 9 10 11 12
000
FTUS42 KMLB 221700
TAFISM
TAF
KISM 221731Z 2218/2318 15010KT P6SM FEW029 SCT120 OVC250
     FM230000 17005KT P6SM FEW020 SCT100 BKN250
     FM230600 17004KT 5SM BR SCT004 OVC008
     FM231500 18010KT P6SM SCT010 BKN020=

USA.gov is the U.S. government's official web portal to all federal, state and local government web resources and services.